sensor_id;sensor_type;location;lat;lon;timestamp;P1;durP1;ratioP1;P2;durP2;ratioP2
29774;SDS011;16676;51.202;6.774;2023-02-08T00:00:25;4.47;;;2.78;;
29774;SDS011;16676;51.202;6.774;2023-02-08T00:04:27;6.55;;;2.80;;
29774;SDS011;16676;51.202;6.774;2023-02-08T00:08:30;3.72;;;2.38;;
29774;SDS011;16676;51.202;6.774;2023-02-08T00:12:33;6.35;;;2.50;;
29774;SDS011;16676;51.202;6.774;2023-02-08T00:16:35;4.63;;;2.70;;
29774;SDS011;16676;51.202;6.774;2023-02-08T00:20:37;4.65;;;2.67;;
29774;SDS011;16676;51.202;6.774;2023-02-08T00:24:41;4.20;;;2.45;;
29774;SDS011;16676;51.202;6.774;2023-02-08T00:28:43;3.53;;;2.40;;
29774;SDS011;16676;51.202;6.774;2023-02-08T00:32:45;3.75;;;2.33;;
29774;SDS011;16676;51.202;6.774;2023-02-08T00:36:47;4.15;;;2.67;;
29774;SDS011;16676;51.202;6.774;2023-02-08T00:40:50;4.93;;;2.20;;
29774;SDS011;16676;51.202;6.774;2023-02-08T00:44:52;4.70;;;2.67;;
29774;SDS011;16676;51.202;6.774;2023-02-08T00:48:54;3.53;;;2.33;;
29774;SDS011;16676;51.202;6.774;2023-02-08T00:52:57;4.80;;;2.30;;
29774;SDS011;16676;51.202;6.774;2023-02-08T00:57:00;3.58;;;2.30;;
29774;SDS011;16676;51.202;6.774;2023-02-08T01:01:02;3.90;;;2.45;;
29774;SDS011;16676;51.202;6.774;2023-02-08T01:05:06;3.47;;;2.10;;
29774;SDS011;16676;51.202;6.774;2023-02-08T01:09:08;3.95;;;2.40;;
29774;SDS011;16676;51.202;6.774;2023-02-08T01:13:11;3.35;;;2.40;;
29774;SDS011;16676;51.202;6.774;2023-02-08T01:17:13;4.38;;;2.53;;
29774;SDS011;16676;51.202;6.774;2023-02-08T01:21:16;4.13;;;2.45;;
29774;SDS011;16676;51.202;6.774;2023-02-08T01:25:20;4.05;;;2.38;;
29774;SDS011;16676;51.202;6.774;2023-02-08T01:29:23;4.50;;;2.70;;
29774;SDS011;16676;51.202;6.774;2023-02-08T01:33:25;4.97;;;2.55;;
29774;SDS011;16676;51.202;6.774;2023-02-08T01:37:28;5.78;;;2.58;;
29774;SDS011;16676;51.202;6.774;2023-02-08T01:41:30;4.03;;;2.97;;
29774;SDS011;16676;51.202;6.774;2023-02-08T01:45:35;3.63;;;2.30;;
29774;SDS011;16676;51.202;6.774;2023-02-08T01:49:37;3.55;;;2.22;;
29774;SDS011;16676;51.202;6.774;2023-02-08T01:53:39;4.47;;;2.70;;
29774;SDS011;16676;51.202;6.774;2023-02-08T01:57:42;3.65;;;2.30;;
29774;SDS011;16676;51.202;6.774;2023-02-08T02:01:46;3.70;;;2.70;;
29774;SDS011;16676;51.202;6.774;2023-02-08T02:05:53;3.90;;;2.42;;
29774;SDS011;16676;51.202;6.774;2023-02-08T02:10:02;4.43;;;2.80;;
29774;SDS011;16676;51.202;6.774;2023-02-08T02:14:09;4.60;;;2.50;;
29774;SDS011;16676;51.202;6.774;2023-02-08T02:18:15;3.40;;;2.45;;
29774;SDS011;16676;51.202;6.774;2023-02-08T02:32:23;5.03;;;2.75;;
29774;SDS011;16676;51.202;6.774;2023-02-08T02:36:58;4.45;;;2.72;;
29774;SDS011;16676;51.202;6.774;2023-02-08T02:41:07;3.55;;;2.42;;
29774;SDS011;16676;51.202;6.774;2023-02-08T02:45:42;3.40;;;2.55;;
29774;SDS011;16676;51.202;6.774;2023-02-08T02:49:51;3.08;;;2.20;;
29774;SDS011;16676;51.202;6.774;2023-02-08T02:53:56;3.65;;;2.40;;
29774;SDS011;16676;51.202;6.774;2023-02-08T02:58:02;3.80;;;2.70;;
29774;SDS011;16676;51.202;6.774;2023-02-08T03:02:06;4.07;;;2.60;;
29774;SDS011;16676;51.202;6.774;2023-02-08T03:06:11;3.92;;;2.42;;
29774;SDS011;16676;51.202;6.774;2023-02-08T03:10:25;4.07;;;2.47;;
29774;SDS011;16676;51.202;6.774;2023-02-08T03:14:44;3.58;;;2.42;;
29774;SDS011;16676;51.202;6.774;2023-02-08T03:18:58;3.55;;;2.47;;
29774;SDS011;16676;51.202;6.774;2023-02-08T03:23:11;3.25;;;2.25;;
29774;SDS011;16676;51.202;6.774;2023-02-08T03:27:21;3.28;;;2.40;;
29774;SDS011;16676;51.202;6.774;2023-02-08T03:31:32;5.00;;;2.50;;
29774;SDS011;16676;51.202;6.774;2023-02-08T03:35:41;4.03;;;2.60;;
29774;SDS011;16676;51.202;6.774;2023-02-08T03:39:50;3.30;;;2.47;;
29774;SDS011;16676;51.202;6.774;2023-02-08T03:43:59;3.60;;;2.60;;
29774;SDS011;16676;51.202;6.774;2023-02-08T03:48:05;2.92;;;2.47;;
29774;SDS011;16676;51.202;6.774;2023-02-08T03:52:10;2.78;;;2.30;;
29774;SDS011;16676;51.202;6.774;2023-02-08T03:56:14;3.33;;;2.40;;
29774;SDS011;16676;51.202;6.774;2023-02-08T04:00:22;3.72;;;2.50;;
29774;SDS011;16676;51.202;6.774;2023-02-08T04:04:24;4.35;;;2.53;;
29774;SDS011;16676;51.202;6.774;2023-02-08T04:08:29;3.28;;;2.20;;
29774;SDS011;16676;51.202;6.774;2023-02-08T04:12:33;4.25;;;2.15;;
29774;SDS011;16676;51.202;6.774;2023-02-08T04:16:35;4.50;;;2.55;;
29774;SDS011;16676;51.202;6.774;2023-02-08T04:20:37;4.55;;;2.83;;
29774;SDS011;16676;51.202;6.774;2023-02-08T04:24:39;3.97;;;2.60;;
29774;SDS011;16676;51.202;6.774;2023-02-08T04:28:42;2.88;;;2.30;;
29774;SDS011;16676;51.202;6.774;2023-02-08T04:32:44;3.05;;;2.20;;
29774;SDS011;16676;51.202;6.774;2023-02-08T04:36:46;3.33;;;2.38;;
29774;SDS011;16676;51.202;6.774;2023-02-08T04:40:48;3.03;;;2.33;;
29774;SDS011;16676;51.202;6.774;2023-02-08T04:44:52;3.40;;;2.38;;
29774;SDS011;16676;51.202;6.774;2023-02-08T04:48:54;3.45;;;2.30;;
29774;SDS011;16676;51.202;6.774;2023-02-08T04:52:56;2.58;;;2.10;;
29774;SDS011;16676;51.202;6.774;2023-02-08T04:56:58;3.05;;;2.10;;
29774;SDS011;16676;51.202;6.774;2023-02-08T05:01:04;3.47;;;2.67;;
29774;SDS011;16676;51.202;6.774;2023-02-08T05:05:06;2.67;;;2.13;;
29774;SDS011;16676;51.202;6.774;2023-02-08T05:09:08;4.30;;;2.10;;
29774;SDS011;16676;51.202;6.774;2023-02-08T05:13:10;3.13;;;2.28;;
29774;SDS011;16676;51.202;6.774;2023-02-08T05:17:14;3.03;;;2.30;;
29774;SDS011;16676;51.202;6.774;2023-02-08T05:21:16;3.20;;;2.45;;
29774;SDS011;16676;51.202;6.774;2023-02-08T05:25:18;3.42;;;2.40;;
29774;SDS011;16676;51.202;6.774;2023-02-08T05:29:20;2.92;;;2.38;;
29774;SDS011;16676;51.202;6.774;2023-02-08T05:33:23;3.67;;;2.33;;
29774;SDS011;16676;51.202;6.774;2023-02-08T05:37:25;3.05;;;2.30;;
29774;SDS011;16676;51.202;6.774;2023-02-08T05:41:27;3.08;;;2.13;;
29774;SDS011;16676;51.202;6.774;2023-02-08T05:45:29;2.83;;;1.98;;
29774;SDS011;16676;51.202;6.774;2023-02-08T05:49:32;2.92;;;2.05;;
29774;SDS011;16676;51.202;6.774;2023-02-08T05:53:34;3.53;;;2.10;;
29774;SDS011;16676;51.202;6.774;2023-02-08T05:57:37;3.13;;;2.42;;
29774;SDS011;16676;51.202;6.774;2023-02-08T06:01:39;3.22;;;2.22;;
29774;SDS011;16676;51.202;6.774;2023-02-08T06:05:42;3.30;;;2.10;;
29774;SDS011;16676;51.202;6.774;2023-02-08T06:09:44;3.15;;;2.17;;
29774;SDS011;16676;51.202;6.774;2023-02-08T06:13:46;3.22;;;2.33;;
29774;SDS011;16676;51.202;6.774;2023-02-08T06:17:48;2.63;;;1.92;;
29774;SDS011;16676;51.202;6.774;2023-02-08T06:21:52;3.97;;;2.20;;
29774;SDS011;16676;51.202;6.774;2023-02-08T06:25:54;3.50;;;2.15;;
29774;SDS011;16676;51.202;6.774;2023-02-08T06:29:56;2.92;;;2.05;;
29774;SDS011;16676;51.202;6.774;2023-02-08T06:33:58;3.50;;;2.20;;
29774;SDS011;16676;51.202;6.774;2023-02-08T06:38:01;2.75;;;2.15;;
29774;SDS011;16676;51.202;6.774;2023-02-08T06:42:03;2.83;;;2.10;;
29774;SDS011;16676;51.202;6.774;2023-02-08T06:46:05;4.85;;;2.22;;
29774;SDS011;16676;51.202;6.774;2023-02-08T06:50:08;6.10;;;2.05;;
29774;SDS011;16676;51.202;6.774;2023-02-08T06:54:12;4.63;;;2.10;;
29774;SDS011;16676;51.202;6.774;2023-02-08T06:58:14;3.08;;;2.35;;
29774;SDS011;16676;51.202;6.774;2023-02-08T07:02:17;6.07;;;2.20;;
29774;SDS011;16676;51.202;6.774;2023-02-08T07:06:20;3.50;;;2.25;;
29774;SDS011;16676;51.202;6.774;2023-02-08T07:10:23;3.22;;;2.25;;
29774;SDS011;16676;51.202;6.774;2023-02-08T07:14:25;3.78;;;2.05;;
29774;SDS011;16676;51.202;6.774;2023-02-08T07:18:27;5.22;;;2.00;;
29774;SDS011;16676;51.202;6.774;2023-02-08T07:22:29;4.13;;;2.45;;
29774;SDS011;16676;51.202;6.774;2023-02-08T07:26:32;3.47;;;2.00;;
29774;SDS011;16676;51.202;6.774;2023-02-08T07:30:34;4.45;;;2.38;;
29774;SDS011;16676;51.202;6.774;2023-02-08T07:34:37;3.00;;;1.95;;
29774;SDS011;16676;51.202;6.774;2023-02-08T07:38:39;4.60;;;2.42;;
29774;SDS011;16676;51.202;6.774;2023-02-08T07:42:43;3.35;;;2.30;;
29774;SDS011;16676;51.202;6.774;2023-02-08T07:46:45;3.67;;;2.38;;
29774;SDS011;16676;51.202;6.774;2023-02-08T07:50:47;3.22;;;2.10;;
29774;SDS011;16676;51.202;6.774;2023-02-08T07:54:49;4.80;;;2.00;;
29774;SDS011;16676;51.202;6.774;2023-02-08T07:58:52;3.75;;;2.38;;
29774;SDS011;16676;51.202;6.774;2023-02-08T08:02:54;3.45;;;2.25;;
29774;SDS011;16676;51.202;6.774;2023-02-08T08:06:56;3.28;;;2.40;;
29774;SDS011;16676;51.202;6.774;2023-02-08T08:10:58;3.00;;;2.42;;
29774;SDS011;16676;51.202;6.774;2023-02-08T08:15:01;3.28;;;2.63;;
29774;SDS011;16676;51.202;6.774;2023-02-08T08:19:03;3.38;;;2.47;;
29774;SDS011;16676;51.202;6.774;2023-02-08T08:23:05;3.10;;;2.35;;
29774;SDS011;16676;51.202;6.774;2023-02-08T08:27:07;6.57;;;2.75;;
29774;SDS011;16676;51.202;6.774;2023-02-08T08:31:12;2.88;;;2.30;;
29774;SDS011;16676;51.202;6.774;2023-02-08T08:35:15;3.00;;;2.38;;
29774;SDS011;16676;51.202;6.774;2023-02-08T08:39:17;3.60;;;2.67;;
29774;SDS011;16676;51.202;6.774;2023-02-08T08:43:19;4.38;;;2.45;;
29774;SDS011;16676;51.202;6.774;2023-02-08T08:47:22;2.88;;;2.25;;
29774;SDS011;16676;51.202;6.774;2023-02-08T08:51:24;3.30;;;2.10;;
29774;SDS011;16676;51.202;6.774;2023-02-08T08:55:26;3.92;;;2.40;;
29774;SDS011;16676;51.202;6.774;2023-02-08T08:59:28;3.40;;;2.33;;
29774;SDS011;16676;51.202;6.774;2023-02-08T09:03:31;3.95;;;2.58;;
29774;SDS011;16676;51.202;6.774;2023-02-08T09:07:33;3.30;;;2.42;;
29774;SDS011;16676;51.202;6.774;2023-02-08T09:11:35;2.90;;;2.40;;
29774;SDS011;16676;51.202;6.774;2023-02-08T09:15:37;3.95;;;2.33;;
29774;SDS011;16676;51.202;6.774;2023-02-08T09:19:41;3.83;;;2.28;;
29774;SDS011;16676;51.202;6.774;2023-02-08T09:23:43;3.40;;;2.60;;
29774;SDS011;16676;51.202;6.774;2023-02-08T09:27:46;3.33;;;2.47;;
29774;SDS011;16676;51.202;6.774;2023-02-08T09:31:48;3.47;;;2.40;;
29774;SDS011;16676;51.202;6.774;2023-02-08T09:35:51;3.70;;;2.42;;
29774;SDS011;16676;51.202;6.774;2023-02-08T09:39:53;3.35;;;2.50;;
29774;SDS011;16676;51.202;6.774;2023-02-08T09:44:00;3.28;;;2.28;;
29774;SDS011;16676;51.202;6.774;2023-02-08T09:48:15;4.22;;;2.47;;
29774;SDS011;16676;51.202;6.774;2023-02-08T09:52:22;4.03;;;2.25;;
29774;SDS011;16676;51.202;6.774;2023-02-08T09:56:28;3.30;;;2.38;;
29774;SDS011;16676;51.202;6.774;2023-02-08T10:00:38;2.97;;;2.38;;
29774;SDS011;16676;51.202;6.774;2023-02-08T10:08:53;4.70;;;2.60;;
29774;SDS011;16676;51.202;6.774;2023-02-08T10:12:56;4.75;;;2.50;;
29774;SDS011;16676;51.202;6.774;2023-02-08T10:17:13;4.07;;;2.70;;
29774;SDS011;16676;51.202;6.774;2023-02-08T10:21:46;3.80;;;2.80;;
29774;SDS011;16676;51.202;6.774;2023-02-08T10:26:16;4.60;;;2.50;;
29774;SDS011;16676;51.202;6.774;2023-02-08T10:30:27;4.43;;;2.80;;
29774;SDS011;16676;51.202;6.774;2023-02-08T10:34:39;3.70;;;2.75;;
29774;SDS011;16676;51.202;6.774;2023-02-08T10:38:44;3.22;;;2.42;;
29774;SDS011;16676;51.202;6.774;2023-02-08T10:42:52;3.55;;;2.70;;
29774;SDS011;16676;51.202;6.774;2023-02-08T10:47:01;4.55;;;2.90;;
29774;SDS011;16676;51.202;6.774;2023-02-08T10:51:12;3.90;;;2.70;;
29774;SDS011;16676;51.202;6.774;2023-02-08T10:55:17;5.72;;;2.65;;
29774;SDS011;16676;51.202;6.774;2023-02-08T10:59:23;3.78;;;2.72;;
29774;SDS011;16676;51.202;6.774;2023-02-08T11:03:29;3.53;;;2.67;;
29774;SDS011;16676;51.202;6.774;2023-02-08T11:07:32;3.90;;;2.55;;
29774;SDS011;16676;51.202;6.774;2023-02-08T11:11:35;3.35;;;2.65;;
29774;SDS011;16676;51.202;6.774;2023-02-08T11:15:42;4.20;;;2.80;;
29774;SDS011;16676;51.202;6.774;2023-02-08T11:19:46;3.80;;;3.00;;
29774;SDS011;16676;51.202;6.774;2023-02-08T11:23:51;4.00;;;2.60;;
29774;SDS011;16676;51.202;6.774;2023-02-08T11:27:55;5.03;;;2.55;;
29774;SDS011;16676;51.202;6.774;2023-02-08T11:31:59;3.05;;;2.53;;
29774;SDS011;16676;51.202;6.774;2023-02-08T11:36:04;6.65;;;2.75;;
29774;SDS011;16676;51.202;6.774;2023-02-08T11:40:14;3.40;;;2.70;;
29774;SDS011;16676;51.202;6.774;2023-02-08T11:44:20;4.13;;;2.75;;
29774;SDS011;16676;51.202;6.774;2023-02-08T11:48:30;4.03;;;2.80;;
29774;SDS011;16676;51.202;6.774;2023-02-08T11:52:39;4.60;;;3.03;;
29774;SDS011;16676;51.202;6.774;2023-02-08T11:56:48;4.83;;;3.07;;
29774;SDS011;16676;51.202;6.774;2023-02-08T12:01:03;5.35;;;3.10;;
29774;SDS011;16676;51.202;6.774;2023-02-08T12:05:11;3.25;;;2.67;;
29774;SDS011;16676;51.202;6.774;2023-02-08T12:09:18;4.30;;;2.95;;
29774;SDS011;16676;51.202;6.774;2023-02-08T12:18:10;3.05;;;2.65;;
29774;SDS011;16676;51.202;6.774;2023-02-08T12:22:37;2.90;;;2.30;;
29774;SDS011;16676;51.202;6.774;2023-02-08T12:26:48;4.40;;;2.72;;
29774;SDS011;16676;51.202;6.774;2023-02-08T12:31:02;4.15;;;2.75;;
29774;SDS011;16676;51.202;6.774;2023-02-08T12:40:14;4.75;;;3.08;;
29774;SDS011;16676;51.202;6.774;2023-02-08T12:44:49;3.72;;;2.78;;
29774;SDS011;16676;51.202;6.774;2023-02-08T12:49:02;2.80;;;2.38;;
29774;SDS011;16676;51.202;6.774;2023-02-08T12:53:14;3.83;;;2.83;;
29774;SDS011;16676;51.202;6.774;2023-02-08T12:57:23;4.20;;;2.50;;
29774;SDS011;16676;51.202;6.774;2023-02-08T13:01:28;4.68;;;2.60;;
29774;SDS011;16676;51.202;6.774;2023-02-08T13:05:34;4.00;;;2.53;;
29774;SDS011;16676;51.202;6.774;2023-02-08T13:09:40;3.58;;;2.55;;
29774;SDS011;16676;51.202;6.774;2023-02-08T13:13:52;4.97;;;2.78;;
29774;SDS011;16676;51.202;6.774;2023-02-08T13:17:58;4.55;;;2.60;;
29774;SDS011;16676;51.202;6.774;2023-02-08T13:22:01;3.72;;;2.20;;
29774;SDS011;16676;51.202;6.774;2023-02-08T13:26:06;2.78;;;2.40;;
29774;SDS011;16676;51.202;6.774;2023-02-08T13:30:16;3.33;;;2.58;;
29774;SDS011;16676;51.202;6.774;2023-02-08T13:34:22;2.97;;;2.13;;
29774;SDS011;16676;51.202;6.774;2023-02-08T13:38:30;3.38;;;2.20;;
29774;SDS011;16676;51.202;6.774;2023-02-08T13:42:35;4.20;;;2.38;;
29774;SDS011;16676;51.202;6.774;2023-02-08T13:46:44;2.55;;;2.05;;
29774;SDS011;16676;51.202;6.774;2023-02-08T13:50:48;3.42;;;2.63;;
29774;SDS011;16676;51.202;6.774;2023-02-08T13:59:27;3.38;;;2.22;;
29774;SDS011;16676;51.202;6.774;2023-02-08T14:03:36;3.83;;;2.58;;
29774;SDS011;16676;51.202;6.774;2023-02-08T14:07:39;3.10;;;2.10;;
29774;SDS011;16676;51.202;6.774;2023-02-08T14:11:44;2.78;;;2.30;;
29774;SDS011;16676;51.202;6.774;2023-02-08T14:20:30;3.15;;;2.35;;
29774;SDS011;16676;51.202;6.774;2023-02-08T14:24:36;3.00;;;2.22;;
29774;SDS011;16676;51.202;6.774;2023-02-08T14:28:43;4.57;;;2.50;;
29774;SDS011;16676;51.202;6.774;2023-02-08T14:32:48;3.78;;;2.38;;
29774;SDS011;16676;51.202;6.774;2023-02-08T14:36:58;2.35;;;2.00;;
29774;SDS011;16676;51.202;6.774;2023-02-08T14:41:03;3.42;;;2.20;;
29774;SDS011;16676;51.202;6.774;2023-02-08T14:45:16;2.95;;;2.20;;
29774;SDS011;16676;51.202;6.774;2023-02-08T14:49:34;2.90;;;2.15;;
29774;SDS011;16676;51.202;6.774;2023-02-08T14:53:43;3.23;;;2.30;;
29774;SDS011;16676;51.202;6.774;2023-02-08T14:57:48;3.00;;;2.00;;
29774;SDS011;16676;51.202;6.774;2023-02-08T15:01:51;2.42;;;2.00;;
29774;SDS011;16676;51.202;6.774;2023-02-08T15:06:02;3.00;;;2.10;;
29774;SDS011;16676;51.202;6.774;2023-02-08T15:10:24;2.15;;;1.90;;
29774;SDS011;16676;51.202;6.774;2023-02-08T15:14:29;2.63;;;2.00;;
29774;SDS011;16676;51.202;6.774;2023-02-08T15:18:35;2.25;;;1.95;;
29774;SDS011;16676;51.202;6.774;2023-02-08T15:22:37;3.38;;;1.80;;
29774;SDS011;16676;51.202;6.774;2023-02-08T15:26:44;2.67;;;1.85;;
29774;SDS011;16676;51.202;6.774;2023-02-08T15:30:51;3.13;;;1.92;;
29774;SDS011;16676;51.202;6.774;2023-02-08T15:34:56;3.83;;;2.25;;
29774;SDS011;16676;51.202;6.774;2023-02-08T15:39:00;2.28;;;1.60;;
29774;SDS011;16676;51.202;6.774;2023-02-08T15:43:11;2.30;;;1.83;;
29774;SDS011;16676;51.202;6.774;2023-02-08T15:47:14;2.50;;;2.08;;
29774;SDS011;16676;51.202;6.774;2023-02-08T15:51:20;2.53;;;1.75;;
29774;SDS011;16676;51.202;6.774;2023-02-08T15:55:23;2.20;;;1.80;;
29774;SDS011;16676;51.202;6.774;2023-02-08T15:59:31;2.63;;;2.10;;
29774;SDS011;16676;51.202;6.774;2023-02-08T16:03:38;2.75;;;1.98;;
29774;SDS011;16676;51.202;6.774;2023-02-08T16:07:41;2.20;;;1.73;;
29774;SDS011;16676;51.202;6.774;2023-02-08T16:11:45;1.98;;;1.58;;
29774;SDS011;16676;51.202;6.774;2023-02-08T16:15:51;2.60;;;1.70;;
29774;SDS011;16676;51.202;6.774;2023-02-08T16:19:54;1.65;;;1.55;;
29774;SDS011;16676;51.202;6.774;2023-02-08T16:23:57;2.03;;;1.50;;
29774;SDS011;16676;51.202;6.774;2023-02-08T16:28:00;2.80;;;2.00;;
29774;SDS011;16676;51.202;6.774;2023-02-08T16:32:06;2.60;;;1.60;;
29774;SDS011;16676;51.202;6.774;2023-02-08T16:36:20;2.35;;;1.70;;
29774;SDS011;16676;51.202;6.774;2023-02-08T16:40:40;2.78;;;1.70;;
29774;SDS011;16676;51.202;6.774;2023-02-08T16:45:01;2.50;;;1.63;;
29774;SDS011;16676;51.202;6.774;2023-02-08T16:49:16;2.47;;;1.70;;
29774;SDS011;16676;51.202;6.774;2023-02-08T16:53:19;2.97;;;1.60;;
29774;SDS011;16676;51.202;6.774;2023-02-08T16:57:21;2.33;;;1.60;;
29774;SDS011;16676;51.202;6.774;2023-02-08T17:01:22;2.55;;;1.80;;
29774;SDS011;16676;51.202;6.774;2023-02-08T17:05:26;2.08;;;1.60;;
29774;SDS011;16676;51.202;6.774;2023-02-08T17:09:30;2.03;;;1.70;;
29774;SDS011;16676;51.202;6.774;2023-02-08T17:13:32;2.42;;;1.65;;
29774;SDS011;16676;51.202;6.774;2023-02-08T17:17:34;2.72;;;1.48;;
29774;SDS011;16676;51.202;6.774;2023-02-08T17:21:37;6.63;;;1.63;;
29774;SDS011;16676;51.202;6.774;2023-02-08T17:25:39;2.42;;;1.70;;
29774;SDS011;16676;51.202;6.774;2023-02-08T17:29:41;2.58;;;1.88;;
29774;SDS011;16676;51.202;6.774;2023-02-08T17:33:43;1.98;;;1.70;;
29774;SDS011;16676;51.202;6.774;2023-02-08T17:37:47;2.30;;;1.73;;
29774;SDS011;16676;51.202;6.774;2023-02-08T17:41:52;2.70;;;1.80;;
29774;SDS011;16676;51.202;6.774;2023-02-08T17:45:54;2.83;;;2.00;;
29774;SDS011;16676;51.202;6.774;2023-02-08T17:49:55;3.53;;;1.95;;
29774;SDS011;16676;51.202;6.774;2023-02-08T17:53:59;2.38;;;1.80;;
29774;SDS011;16676;51.202;6.774;2023-02-08T17:58:04;2.55;;;1.73;;
29774;SDS011;16676;51.202;6.774;2023-02-08T18:02:05;3.55;;;2.13;;
29774;SDS011;16676;51.202;6.774;2023-02-08T18:06:07;2.90;;;1.88;;
29774;SDS011;16676;51.202;6.774;2023-02-08T18:10:11;2.92;;;1.90;;
29774;SDS011;16676;51.202;6.774;2023-02-08T18:14:14;3.17;;;2.03;;
29774;SDS011;16676;51.202;6.774;2023-02-08T18:18:17;1.90;;;1.60;;
29774;SDS011;16676;51.202;6.774;2023-02-08T18:22:19;4.38;;;1.90;;
29774;SDS011;16676;51.202;6.774;2023-02-08T18:26:23;3.40;;;2.17;;
29774;SDS011;16676;51.202;6.774;2023-02-08T18:30:25;4.10;;;1.90;;
29774;SDS011;16676;51.202;6.774;2023-02-08T18:34:27;2.92;;;2.00;;
29774;SDS011;16676;51.202;6.774;2023-02-08T18:38:29;2.92;;;1.90;;
29774;SDS011;16676;51.202;6.774;2023-02-08T18:42:32;2.83;;;1.98;;
29774;SDS011;16676;51.202;6.774;2023-02-08T18:46:35;3.60;;;2.38;;
29774;SDS011;16676;51.202;6.774;2023-02-08T18:50:37;4.32;;;2.25;;
29774;SDS011;16676;51.202;6.774;2023-02-08T18:54:39;3.83;;;2.33;;
29774;SDS011;16676;51.202;6.774;2023-02-08T18:58:42;4.05;;;2.00;;
29774;SDS011;16676;51.202;6.774;2023-02-08T19:02:44;5.60;;;2.50;;
29774;SDS011;16676;51.202;6.774;2023-02-08T19:06:46;4.85;;;2.20;;
29774;SDS011;16676;51.202;6.774;2023-02-08T19:10:48;4.30;;;2.45;;
29774;SDS011;16676;51.202;6.774;2023-02-08T19:14:51;3.13;;;2.25;;
29774;SDS011;16676;51.202;6.774;2023-02-08T19:18:53;7.60;;;2.42;;
29774;SDS011;16676;51.202;6.774;2023-02-08T19:22:56;3.53;;;2.22;;
29774;SDS011;16676;51.202;6.774;2023-02-08T19:26:58;3.95;;;2.67;;
29774;SDS011;16676;51.202;6.774;2023-02-08T19:31:02;3.63;;;2.50;;
29774;SDS011;16676;51.202;6.774;2023-02-08T19:35:05;4.65;;;2.50;;
29774;SDS011;16676;51.202;6.774;2023-02-08T19:39:07;3.53;;;2.28;;
29774;SDS011;16676;51.202;6.774;2023-02-08T19:43:12;4.95;;;2.50;;
29774;SDS011;16676;51.202;6.774;2023-02-08T19:47:15;5.10;;;2.67;;
29774;SDS011;16676;51.202;6.774;2023-02-08T19:51:19;3.97;;;2.58;;
29774;SDS011;16676;51.202;6.774;2023-02-08T19:55:22;5.03;;;2.45;;
29774;SDS011;16676;51.202;6.774;2023-02-08T19:59:24;5.28;;;2.85;;
29774;SDS011;16676;51.202;6.774;2023-02-08T20:03:29;3.90;;;2.40;;
29774;SDS011;16676;51.202;6.774;2023-02-08T20:07:31;5.78;;;2.80;;
29774;SDS011;16676;51.202;6.774;2023-02-08T20:11:34;5.00;;;2.60;;
29774;SDS011;16676;51.202;6.774;2023-02-08T20:15:37;4.53;;;2.55;;
29774;SDS011;16676;51.202;6.774;2023-02-08T20:19:41;5.72;;;2.70;;
29774;SDS011;16676;51.202;6.774;2023-02-08T20:23:43;5.68;;;2.53;;
29774;SDS011;16676;51.202;6.774;2023-02-08T20:27:46;3.97;;;2.60;;
29774;SDS011;16676;51.202;6.774;2023-02-08T20:31:48;4.38;;;2.55;;
29774;SDS011;16676;51.202;6.774;2023-02-08T20:35:54;4.18;;;2.50;;
29774;SDS011;16676;51.202;6.774;2023-02-08T20:39:56;5.10;;;2.53;;
29774;SDS011;16676;51.202;6.774;2023-02-08T20:43:58;4.28;;;2.65;;
29774;SDS011;16676;51.202;6.774;2023-02-08T20:48:00;5.47;;;2.70;;
29774;SDS011;16676;51.202;6.774;2023-02-08T20:52:03;3.70;;;2.53;;
29774;SDS011;16676;51.202;6.774;2023-02-08T20:56:06;5.63;;;2.88;;
29774;SDS011;16676;51.202;6.774;2023-02-08T21:00:10;5.43;;;2.70;;
29774;SDS011;16676;51.202;6.774;2023-02-08T21:04:13;5.88;;;2.97;;
29774;SDS011;16676;51.202;6.774;2023-02-08T21:08:17;5.32;;;3.03;;
29774;SDS011;16676;51.202;6.774;2023-02-08T21:12:19;4.57;;;2.85;;
29774;SDS011;16676;51.202;6.774;2023-02-08T21:16:22;5.13;;;3.20;;
29774;SDS011;16676;51.202;6.774;2023-02-08T21:20:24;5.32;;;2.60;;
29774;SDS011;16676;51.202;6.774;2023-02-08T21:24:27;9.93;;;2.70;;
29774;SDS011;16676;51.202;6.774;2023-02-08T21:28:30;5.57;;;2.60;;
29774;SDS011;16676;51.202;6.774;2023-02-08T21:32:32;4.75;;;2.72;;
29774;SDS011;16676;51.202;6.774;2023-02-08T21:36:34;5.05;;;2.80;;
29774;SDS011;16676;51.202;6.774;2023-02-08T21:40:37;5.22;;;2.97;;
29774;SDS011;16676;51.202;6.774;2023-02-08T21:44:39;4.40;;;2.33;;
29774;SDS011;16676;51.202;6.774;2023-02-08T21:48:41;4.95;;;2.90;;
29774;SDS011;16676;51.202;6.774;2023-02-08T21:53:01;4.85;;;3.00;;
29774;SDS011;16676;51.202;6.774;2023-02-08T21:57:23;4.38;;;2.70;;
29774;SDS011;16676;51.202;6.774;2023-02-08T22:01:26;4.95;;;2.53;;
29774;SDS011;16676;51.202;6.774;2023-02-08T22:05:28;3.22;;;2.30;;
29774;SDS011;16676;51.202;6.774;2023-02-08T22:09:29;4.43;;;2.80;;
29774;SDS011;16676;51.202;6.774;2023-02-08T22:13:33;5.00;;;2.70;;
29774;SDS011;16676;51.202;6.774;2023-02-08T22:17:35;4.95;;;3.08;;
29774;SDS011;16676;51.202;6.774;2023-02-08T22:21:37;4.15;;;2.70;;
29774;SDS011;16676;51.202;6.774;2023-02-08T22:25:39;4.13;;;2.60;;
29774;SDS011;16676;51.202;6.774;2023-02-08T22:29:42;3.78;;;2.58;;
29774;SDS011;16676;51.202;6.774;2023-02-08T22:33:44;4.35;;;2.70;;
29774;SDS011;16676;51.202;6.774;2023-02-08T22:37:46;4.45;;;2.38;;
29774;SDS011;16676;51.202;6.774;2023-02-08T22:41:48;4.82;;;2.72;;
29774;SDS011;16676;51.202;6.774;2023-02-08T22:45:57;5.43;;;3.10;;
29774;SDS011;16676;51.202;6.774;2023-02-08T22:50:00;3.53;;;2.40;;
29774;SDS011;16676;51.202;6.774;2023-02-08T22:54:02;5.18;;;2.78;;
29774;SDS011;16676;51.202;6.774;2023-02-08T22:58:04;5.13;;;3.17;;
29774;SDS011;16676;51.202;6.774;2023-02-08T23:02:07;4.78;;;2.88;;
29774;SDS011;16676;51.202;6.774;2023-02-08T23:06:11;4.40;;;2.42;;
29774;SDS011;16676;51.202;6.774;2023-02-08T23:10:16;6.38;;;3.10;;
29774;SDS011;16676;51.202;6.774;2023-02-08T23:14:18;5.07;;;2.83;;
29774;SDS011;16676;51.202;6.774;2023-02-08T23:18:21;4.97;;;2.65;;
29774;SDS011;16676;51.202;6.774;2023-02-08T23:22:24;3.47;;;2.38;;
29774;SDS011;16676;51.202;6.774;2023-02-08T23:26:26;3.38;;;2.55;;
29774;SDS011;16676;51.202;6.774;2023-02-08T23:30:27;4.95;;;2.50;;
29774;SDS011;16676;51.202;6.774;2023-02-08T23:34:31;4.97;;;2.70;;
29774;SDS011;16676;51.202;6.774;2023-02-08T23:38:34;4.22;;;2.50;;
29774;SDS011;16676;51.202;6.774;2023-02-08T23:42:36;3.80;;;2.20;;
29774;SDS011;16676;51.202;6.774;2023-02-08T23:46:38;4.50;;;2.40;;
29774;SDS011;16676;51.202;6.774;2023-02-08T23:50:41;3.92;;;2.65;;
29774;SDS011;16676;51.202;6.774;2023-02-08T23:54:43;3.75;;;2.40;;
29774;SDS011;16676;51.202;6.774;2023-02-08T23:58:46;3.40;;;2.42;;
